Portada
METAR-TAF:

METAR-TAF

Aeroports :

Taiyuan, Xina

latitud: 37-47N, longitud: 112-33E, altitud: 779 m

Observació

L'informe es va fer fa 48 minuts, a les 09:00 UTC
Vent 6 kt del Est
Temperatura 2°C
Humitat 87%
Pressió 1022 hPa
Visibilitat: 4000 m
Escasses núvols a una alçada de 1600 ft
boirina

METAR: ZBYN 270900Z 09003MPS 4000 BR FEW016 02/00 Q1022 NOSIG

Hora: 17:48 (09:48 UTC)

Pronòstic

L'informe es va fer fa 3 hores i 35 minuts, a les 06:13 UTC
Pronòstic vàlid del 27 a les 06 UTC al 28 a les 06 UTC
Vent 8 kt del Est
Visibilitat: 3000 m
boirina
Temporalment
l' 27 a les 06 UTC al 27 a les 10 UTC
Visibilitat: 1600 m
pluja, boirina

TAF: ZBYN 270613Z 2706/2806 09004MPS 3000 BR NSC TX03/2707Z TNM02/2722Z TEMPO 2706/2710 1600 RA BR

Observacions i pronòstics meteorològics de més de 4000 aeroports (METAR i TAF).

Les estacions disponibles són els punts grocs i vermells al mapa.

Posi el ratolí al punt desitjat per veure el nom de l'estació.

Feu clic per veure les observacions i els pronòstics meteorològics.

Per canviar el mapa: feu clic els botons verds amb una creu de color negre per apropar; al botó verd amb un guió per allunyar la imatge; o en les fletxes verdes per a mapes adjacents.


METAR-TAF: